createdAt,value
2022-09-29T00:00:01.345Z,972.37
2022-09-29T00:01:01.335Z,972.36
2022-09-29T00:02:01.335Z,972.37
2022-09-29T00:03:01.399Z,972.38
2022-09-29T00:04:01.318Z,972.39
2022-09-29T00:05:01.287Z,972.38
2022-09-29T00:06:01.272Z,972.37
2022-09-29T00:07:01.265Z,972.32
2022-09-29T00:08:01.261Z,972.35
2022-09-29T00:09:01.268Z,972.33
2022-09-29T00:10:01.253Z,972.36
2022-09-29T00:11:01.221Z,972.36
2022-09-29T00:12:01.195Z,972.33
2022-09-29T00:13:01.190Z,972.37
2022-09-29T00:14:01.255Z,972.32
2022-09-29T00:15:01.168Z,972.30
2022-09-29T00:16:01.277Z,972.35
2022-09-29T00:17:01.151Z,972.35
2022-09-29T00:18:16.468Z,972.36
2022-09-29T00:19:01.130Z,972.33
2022-09-29T00:20:01.178Z,972.34
2022-09-29T00:21:01.153Z,972.35
2022-09-29T00:22:01.102Z,972.33
2022-09-29T00:23:01.101Z,972.29
2022-09-29T00:24:01.074Z,972.30
2022-09-29T00:25:01.097Z,972.28
2022-09-29T00:26:01.064Z,972.26
2022-09-29T00:27:01.044Z,972.24
2022-09-29T00:28:01.030Z,972.25
2022-09-29T00:29:01.046Z,972.25
2022-09-29T00:30:00.999Z,972.25
2022-09-29T00:31:01.065Z,972.24
2022-09-29T00:32:01.096Z,972.27
2022-09-29T00:33:01.001Z,972.23
2022-09-29T00:34:00.974Z,972.23
2022-09-29T00:35:00.962Z,972.23
2022-09-29T00:36:00.943Z,972.18
2022-09-29T00:37:00.951Z,972.25
2022-09-29T00:38:00.926Z,972.19
2022-09-29T00:39:00.915Z,972.21
2022-09-29T00:40:00.896Z,972.19
2022-09-29T00:41:00.993Z,972.23
2022-09-29T00:42:00.920Z,972.21
2022-09-29T00:43:00.886Z,972.21
2022-09-29T00:44:00.907Z,972.19
2022-09-29T00:45:00.833Z,972.19
2022-09-29T00:46:00.888Z,972.16
2022-09-29T00:47:00.850Z,972.18
2022-09-29T00:48:00.800Z,972.18
2022-09-29T00:49:00.805Z,972.17
2022-09-29T00:50:00.770Z,972.19
2022-09-29T00:51:00.761Z,972.16
2022-09-29T00:52:00.756Z,972.18
2022-09-29T00:53:00.746Z,972.12
2022-09-29T00:54:00.741Z,972.15
2022-09-29T00:55:00.720Z,972.11
2022-09-29T00:56:00.703Z,972.12
2022-09-29T00:57:00.706Z,972.09
2022-09-29T00:58:00.683Z,972.08
2022-09-29T00:59:00.704Z,972.11
2022-09-29T01:00:00.676Z,972.11
2022-09-29T01:01:00.701Z,972.06
2022-09-29T01:02:00.686Z,972.07
2022-09-29T01:03:00.629Z,972.05
2022-09-29T01:04:00.656Z,972.07
2022-09-29T01:05:00.624Z,972.06
2022-09-29T01:06:00.595Z,972.07
2022-09-29T01:07:00.582Z,972.02
2022-09-29T01:08:00.587Z,972.03
2022-09-29T01:09:00.599Z,972.05
2022-09-29T01:10:00.577Z,972.07
2022-09-29T01:11:00.539Z,972.07
2022-09-29T01:12:00.569Z,972.10
2022-09-29T01:13:00.514Z,972.04
2022-09-29T01:14:00.549Z,972.07
2022-09-29T01:15:00.506Z,972.08
2022-09-29T01:16:00.520Z,972.07
2022-09-29T01:17:00.504Z,972.09
2022-09-29T01:18:00.485Z,972.06
2022-09-29T01:19:00.492Z,972.08
2022-09-29T01:20:04.297Z,972.06
2022-09-29T01:21:00.433Z,972.07
2022-09-29T01:22:00.407Z,972.06
2022-09-29T01:23:00.440Z,972.05
2022-09-29T01:24:00.411Z,972.03
2022-09-29T01:25:00.392Z,972.02
2022-09-29T01:26:00.418Z,972.05
2022-09-29T01:27:00.350Z,972.07
2022-09-29T01:28:00.413Z,972.05
2022-09-29T01:29:00.400Z,972.03
2022-09-29T01:30:00.324Z,972.07
2022-09-29T01:31:00.510Z,972.04
2022-09-29T01:32:00.319Z,972.03
2022-09-29T01:33:00.291Z,972.06
2022-09-29T01:34:00.292Z,972.08
2022-09-29T01:35:00.293Z,972.04
2022-09-29T01:36:00.256Z,972.06
2022-09-29T01:37:00.248Z,972.01
2022-09-29T01:38:00.230Z,972.02
2022-09-29T01:39:00.241Z,972.04
2022-09-29T01:40:00.251Z,972.07
2022-09-29T01:41:00.346Z,972.07
2022-09-29T01:42:00.183Z,972.07
2022-09-29T01:43:00.180Z,972.04
2022-09-29T01:44:00.183Z,972.06
2022-09-29T01:45:00.160Z,972.06
2022-09-29T01:46:00.265Z,972.05
2022-09-29T01:47:00.166Z,972.06
2022-09-29T01:48:00.128Z,972.07
2022-09-29T01:49:00.113Z,972.05
2022-09-29T01:50:00.166Z,972.06
2022-09-29T01:51:00.153Z,972.06
2022-09-29T01:52:00.101Z,972.06
2022-09-29T01:53:00.113Z,972.04
2022-09-29T01:54:00.053Z,972.07
2022-09-29T01:55:00.096Z,972.05
2022-09-29T01:56:00.095Z,972.03
2022-09-29T01:57:00.023Z,972.07
2022-09-29T01:58:00.006Z,972.08
2022-09-29T01:59:00.036Z,972.02
2022-09-29T01:59:59.984Z,972.04
2022-09-29T02:01:00.040Z,972.06
2022-09-29T02:02:00.898Z,972.01
2022-09-29T02:02:59.962Z,972.05
2022-09-29T02:03:59.944Z,972.03
2022-09-29T02:04:59.945Z,972.04
2022-09-29T02:05:59.947Z,972.02
2022-09-29T02:06:59.915Z,972.04
2022-09-29T02:07:59.926Z,971.98
2022-09-29T02:08:59.873Z,971.97
2022-09-29T02:09:59.880Z,971.99
2022-09-29T02:10:59.875Z,971.96
2022-09-29T02:11:59.863Z,971.97
2022-09-29T02:12:59.860Z,971.97
2022-09-29T02:13:59.865Z,971.99
2022-09-29T02:14:59.848Z,972.00
2022-09-29T02:15:59.904Z,971.97
2022-09-29T02:16:59.806Z,971.99
2022-09-29T02:17:59.776Z,971.96
2022-09-29T02:18:59.784Z,971.93
2022-09-29T02:19:59.756Z,971.95
2022-09-29T02:20:59.765Z,971.97
2022-09-29T02:21:59.763Z,971.96
2022-09-29T02:22:59.724Z,972.00
2022-09-29T02:23:59.723Z,971.96
2022-09-29T02:24:59.723Z,971.99
2022-09-29T02:25:59.698Z,971.98
2022-09-29T02:26:59.695Z,971.94
2022-09-29T02:27:59.677Z,971.98
2022-09-29T02:28:59.659Z,971.92
2022-09-29T02:29:59.662Z,971.95
2022-09-29T02:30:59.673Z,972.03
2022-09-29T02:31:59.671Z,972.01
2022-09-29T02:32:59.644Z,972.03
2022-09-29T02:33:59.603Z,971.98
2022-09-29T02:34:59.590Z,971.97
2022-09-29T02:35:59.581Z,971.97
2022-09-29T02:36:59.573Z,972.00
2022-09-29T02:37:59.574Z,971.99
2022-09-29T02:38:59.553Z,971.98
2022-09-29T02:39:59.544Z,971.97
2022-09-29T02:40:59.545Z,972.00
2022-09-29T02:41:59.538Z,971.98
2022-09-29T02:42:59.520Z,971.98
2022-09-29T02:43:59.490Z,971.96
2022-09-29T02:44:59.507Z,971.93
2022-09-29T02:45:59.529Z,971.91
2022-09-29T02:46:59.463Z,971.94
2022-09-29T02:47:59.483Z,971.91
2022-09-29T02:48:59.431Z,971.92
2022-09-29T02:49:59.411Z,971.89
2022-09-29T02:50:59.411Z,971.90
2022-09-29T02:51:59.418Z,971.90
2022-09-29T02:52:59.405Z,971.90
2022-09-29T02:53:59.375Z,971.87
2022-09-29T02:54:59.368Z,971.87
2022-09-29T02:55:59.352Z,971.90
2022-09-29T02:56:59.339Z,971.90
2022-09-29T02:57:59.360Z,971.89
2022-09-29T02:58:59.330Z,971.91
2022-09-29T02:59:59.356Z,971.90
2022-09-29T03:00:59.379Z,971.89
2022-09-29T03:01:59.279Z,971.89
2022-09-29T03:02:59.309Z,971.88
2022-09-29T03:04:03.960Z,971.84
2022-09-29T03:04:59.260Z,971.86
2022-09-29T03:05:59.268Z,971.84
2022-09-29T03:06:59.240Z,971.84
2022-09-29T03:07:59.231Z,971.85
2022-09-29T03:08:59.215Z,971.85
2022-09-29T03:09:59.211Z,971.85
2022-09-29T03:10:59.225Z,971.87
2022-09-29T03:11:59.420Z,971.86
2022-09-29T03:12:59.160Z,971.83
2022-09-29T03:13:59.142Z,971.86
2022-09-29T03:14:59.143Z,971.85
2022-09-29T03:15:59.198Z,971.84
2022-09-29T03:16:59.142Z,971.84
2022-09-29T03:17:59.098Z,971.81
2022-09-29T03:18:59.115Z,971.86
2022-09-29T03:19:59.096Z,971.84
2022-09-29T03:20:59.079Z,971.83
2022-09-29T03:21:59.068Z,971.80
2022-09-29T03:22:59.115Z,971.77
2022-09-29T03:23:59.065Z,971.79
2022-09-29T03:24:59.025Z,971.78
2022-09-29T03:25:59.031Z,971.75
2022-09-29T03:26:59.026Z,971.80
2022-09-29T03:27:59.000Z,971.78
2022-09-29T03:28:58.992Z,971.79
2022-09-29T03:29:58.997Z,971.76
2022-09-29T03:30:59.035Z,971.77
2022-09-29T03:31:58.987Z,971.77
2022-09-29T03:32:58.950Z,971.76
2022-09-29T03:33:58.925Z,971.80
2022-09-29T03:34:58.928Z,971.75
2022-09-29T03:35:58.924Z,971.73
2022-09-29T03:36:58.916Z,971.74
2022-09-29T03:37:58.890Z,971.78
2022-09-29T03:38:58.870Z,971.76
2022-09-29T03:39:58.883Z,971.77
2022-09-29T03:40:58.917Z,971.80
2022-09-29T03:41:58.839Z,971.78
2022-09-29T03:42:58.867Z,971.76
2022-09-29T03:43:58.820Z,971.77
2022-09-29T03:44:58.809Z,971.73
2022-09-29T03:45:58.856Z,971.74
2022-09-29T03:46:58.782Z,971.79
2022-09-29T03:47:58.770Z,971.77
2022-09-29T03:48:58.762Z,971.74
2022-09-29T03:49:58.760Z,971.73
2022-09-29T03:50:58.749Z,971.73
2022-09-29T03:51:58.730Z,971.74
2022-09-29T03:52:58.720Z,971.76
2022-09-29T03:53:58.693Z,971.74
2022-09-29T03:54:58.708Z,971.77
2022-09-29T03:55:58.681Z,971.82
2022-09-29T03:56:58.670Z,971.76
2022-09-29T03:57:58.654Z,971.77
2022-09-29T03:58:58.653Z,971.80
2022-09-29T03:59:58.676Z,971.85
2022-09-29T04:00:58.739Z,971.79
2022-09-29T04:01:58.687Z,971.79
2022-09-29T04:02:58.612Z,971.78
2022-09-29T04:03:58.603Z,971.81
2022-09-29T04:04:58.605Z,971.82
2022-09-29T04:05:58.573Z,971.80
2022-09-29T04:06:58.568Z,971.84
2022-09-29T04:07:58.542Z,971.82
2022-09-29T04:08:58.577Z,971.82
2022-09-29T04:09:58.507Z,971.82
2022-09-29T04:10:58.511Z,971.86
2022-09-29T04:11:58.493Z,971.81
2022-09-29T04:12:58.481Z,971.79
2022-09-29T04:13:58.505Z,971.79
2022-09-29T04:14:58.467Z,971.80
2022-09-29T04:15:58.546Z,971.76
2022-09-29T04:16:58.445Z,971.80
2022-09-29T04:17:58.442Z,971.82
2022-09-29T04:18:58.474Z,971.75
2022-09-29T04:19:58.419Z,971.78
2022-09-29T04:20:58.412Z,971.76
2022-09-29T04:21:58.400Z,971.74
2022-09-29T04:22:58.374Z,971.77
2022-09-29T04:23:58.375Z,971.77
2022-09-29T04:24:58.375Z,971.73
2022-09-29T04:25:58.359Z,971.77
2022-09-29T04:26:58.335Z,971.73
2022-09-29T04:27:58.316Z,971.71
2022-09-29T04:28:58.310Z,971.72
2022-09-29T04:29:58.326Z,971.71
2022-09-29T04:30:58.295Z,971.72
2022-09-29T04:31:58.336Z,971.71
2022-09-29T04:32:58.263Z,971.70
2022-09-29T04:33:58.243Z,971.68
2022-09-29T04:34:58.277Z,971.69
2022-09-29T04:35:58.240Z,971.66
2022-09-29T04:36:58.229Z,971.68
2022-09-29T04:37:58.235Z,971.70
2022-09-29T04:38:58.220Z,971.77
2022-09-29T04:39:58.187Z,971.77
2022-09-29T04:40:58.224Z,971.76
2022-09-29T04:41:58.152Z,971.74
2022-09-29T04:42:58.155Z,971.75
2022-09-29T04:43:58.177Z,971.75
2022-09-29T04:44:58.125Z,971.72
2022-09-29T04:45:58.194Z,971.74
2022-09-29T04:46:58.136Z,971.70
2022-09-29T04:47:58.088Z,971.74
2022-09-29T04:48:58.092Z,971.72
2022-09-29T04:49:58.066Z,971.73
2022-09-29T04:50:58.080Z,971.69
2022-09-29T04:51:58.070Z,971.75
2022-09-29T04:52:58.037Z,971.76
2022-09-29T04:53:58.037Z,971.74
2022-09-29T04:54:58.029Z,971.73
2022-09-29T04:55:58.017Z,971.72
2022-09-29T04:56:57.984Z,971.73
2022-09-29T04:57:58.004Z,971.74
2022-09-29T04:58:57.973Z,971.72
2022-09-29T04:59:57.971Z,971.74
2022-09-29T05:00:58.059Z,971.75
2022-09-29T05:01:58.029Z,971.72
2022-09-29T05:02:57.977Z,971.69
2022-09-29T05:03:57.925Z,971.71
2022-09-29T05:04:58.035Z,971.73
2022-09-29T05:05:57.913Z,971.67
2022-09-29T05:06:57.879Z,971.70
2022-09-29T05:07:57.861Z,971.64
2022-09-29T05:08:57.854Z,971.69
2022-09-29T05:09:57.875Z,971.65
2022-09-29T05:10:57.850Z,971.64
2022-09-29T05:11:57.842Z,971.66
2022-09-29T05:12:57.813Z,971.67
2022-09-29T05:13:57.826Z,971.69
2022-09-29T05:14:57.791Z,971.66
2022-09-29T05:15:57.884Z,971.67
2022-09-29T05:16:57.806Z,971.66
2022-09-29T05:17:57.765Z,971.67
2022-09-29T05:18:57.752Z,971.69
2022-09-29T05:19:57.738Z,971.67
2022-09-29T05:21:16.112Z,971.65
2022-09-29T05:21:57.755Z,971.63
2022-09-29T05:22:57.694Z,971.64
2022-09-29T05:23:57.695Z,971.67
2022-09-29T05:24:57.690Z,971.66
2022-09-29T05:25:57.667Z,971.66
2022-09-29T05:26:58.718Z,971.68
2022-09-29T05:27:57.653Z,971.65
2022-09-29T05:28:57.630Z,971.70
2022-09-29T05:29:57.648Z,971.62
2022-09-29T05:30:57.631Z,971.64
2022-09-29T05:31:57.639Z,971.59
2022-09-29T05:32:59.075Z,971.64
2022-09-29T05:33:57.577Z,971.64
2022-09-29T05:34:57.631Z,971.61
2022-09-29T05:35:57.549Z,971.58
2022-09-29T05:36:57.532Z,971.58
2022-09-29T05:37:57.533Z,971.60
2022-09-29T05:38:57.535Z,971.58
2022-09-29T05:39:57.543Z,971.56
2022-09-29T05:40:57.531Z,971.58
2022-09-29T05:41:59.654Z,971.58
2022-09-29T05:42:57.464Z,971.60
2022-09-29T05:43:57.471Z,971.57
2022-09-29T05:44:57.462Z,971.60
2022-09-29T05:45:57.459Z,971.60
2022-09-29T05:46:57.441Z,971.58
2022-09-29T05:47:57.409Z,971.57
2022-09-29T05:48:57.440Z,971.57
2022-09-29T05:49:57.384Z,971.55
2022-09-29T05:50:57.387Z,971.59
2022-09-29T05:51:57.378Z,971.62
2022-09-29T05:52:57.362Z,971.62
2022-09-29T05:53:57.369Z,971.57
2022-09-29T05:54:57.339Z,971.60
2022-09-29T05:55:57.330Z,971.58
2022-09-29T05:56:57.314Z,971.63
2022-09-29T05:57:57.311Z,971.59
2022-09-29T05:58:57.312Z,971.60
2022-09-29T05:59:57.274Z,971.60
2022-09-29T06:00:57.385Z,971.52
2022-09-29T06:01:58.046Z,971.57
2022-09-29T06:02:57.258Z,971.53
2022-09-29T06:03:57.261Z,971.52
2022-09-29T06:04:57.240Z,971.57
2022-09-29T06:05:57.234Z,971.55
2022-09-29T06:06:57.229Z,971.47
2022-09-29T06:07:57.212Z,971.52
2022-09-29T06:08:57.228Z,971.56
2022-09-29T06:09:57.225Z,971.48
2022-09-29T06:10:57.176Z,971.52
2022-09-29T06:11:57.151Z,971.52
2022-09-29T06:12:57.140Z,971.51
2022-09-29T06:13:57.149Z,971.49
2022-09-29T06:14:57.112Z,971.50
2022-09-29T06:15:57.129Z,971.50
2022-09-29T06:16:57.150Z,971.52
2022-09-29T06:17:57.084Z,971.46
2022-09-29T06:18:57.081Z,971.46
2022-09-29T06:19:57.050Z,971.46
2022-09-29T06:20:57.075Z,971.47
2022-09-29T06:21:57.421Z,971.44
2022-09-29T06:22:57.032Z,971.44
2022-09-29T06:23:57.000Z,971.44
2022-09-29T06:24:57.242Z,971.46
2022-09-29T06:25:57.003Z,971.41
2022-09-29T06:26:56.972Z,971.36
2022-09-29T06:27:57.192Z,971.37
2022-09-29T06:28:56.976Z,971.38
2022-09-29T06:29:56.969Z,971.38
2022-09-29T06:30:56.934Z,971.41
2022-09-29T06:31:57.013Z,971.38
2022-09-29T06:32:56.948Z,971.37
2022-09-29T06:33:57.154Z,971.40
2022-09-29T06:34:58.734Z,971.37
2022-09-29T06:35:56.884Z,971.35
2022-09-29T06:36:56.883Z,971.37
2022-09-29T06:37:56.845Z,971.36
2022-09-29T06:38:56.928Z,971.38
2022-09-29T06:39:56.838Z,971.38
2022-09-29T06:40:56.874Z,971.37
2022-09-29T06:41:56.809Z,971.37
2022-09-29T06:42:56.799Z,971.36
2022-09-29T06:43:56.806Z,971.38
2022-09-29T06:44:56.845Z,971.37
2022-09-29T06:45:56.846Z,971.39
2022-09-29T06:46:56.754Z,971.43
2022-09-29T06:47:56.742Z,971.39
2022-09-29T06:48:56.729Z,971.40
2022-09-29T06:49:59.818Z,971.40
2022-09-29T06:51:07.557Z,971.39
2022-09-29T06:51:56.700Z,971.44
2022-09-29T06:53:03.885Z,971.37
2022-09-29T06:54:06.947Z,971.42
2022-09-29T06:54:56.663Z,971.38
2022-09-29T06:55:56.670Z,971.42
2022-09-29T06:56:56.660Z,971.43
2022-09-29T06:58:00.099Z,971.46
2022-09-29T06:58:56.626Z,971.45
2022-09-29T06:59:56.625Z,971.46
2022-09-29T07:00:57.410Z,971.45
2022-09-29T07:01:56.685Z,971.47
2022-09-29T07:02:56.586Z,971.48
2022-09-29T07:03:56.585Z,971.43
2022-09-29T07:04:56.539Z,971.47
2022-09-29T07:06:18.241Z,971.46
2022-09-29T07:06:56.559Z,971.44
2022-09-29T07:08:00.875Z,971.44
2022-09-29T07:08:56.514Z,971.44
2022-09-29T07:09:56.479Z,971.47
2022-09-29T07:10:56.487Z,971.45
2022-09-29T07:11:56.470Z,971.42
2022-09-29T07:12:56.524Z,971.46
2022-09-29T07:13:56.448Z,971.47
2022-09-29T07:14:56.442Z,971.46
2022-09-29T07:15:56.429Z,971.47
2022-09-29T07:16:56.437Z,971.48
2022-09-29T07:17:56.416Z,971.48
2022-09-29T07:18:56.501Z,971.48
2022-09-29T07:19:56.389Z,971.45
2022-09-29T07:20:56.389Z,971.48
2022-09-29T07:21:56.396Z,971.49
2022-09-29T07:22:56.356Z,971.50
2022-09-29T07:24:01.317Z,971.47
2022-09-29T07:24:56.340Z,971.48
2022-09-29T07:25:56.341Z,971.46
2022-09-29T07:26:56.334Z,971.49
2022-09-29T07:27:56.293Z,971.48
2022-09-29T07:28:56.355Z,971.49
2022-09-29T07:30:03.746Z,971.52
2022-09-29T07:31:04.267Z,971.48
2022-09-29T07:31:56.315Z,971.51
2022-09-29T07:33:01.820Z,971.48
2022-09-29T07:33:56.271Z,971.50
2022-09-29T07:34:56.218Z,971.51
2022-09-29T07:35:56.204Z,971.49
2022-09-29T07:36:56.193Z,971.48
2022-09-29T07:37:56.186Z,971.47
2022-09-29T07:38:56.188Z,971.46
2022-09-29T07:39:56.171Z,971.44
2022-09-29T07:40:56.219Z,971.42
2022-09-29T07:41:56.134Z,971.43
2022-09-29T07:42:56.125Z,971.40
2022-09-29T07:43:56.155Z,971.40
2022-09-29T07:44:56.122Z,971.43
2022-09-29T07:45:56.183Z,971.44
2022-09-29T07:46:56.071Z,971.42
2022-09-29T07:47:56.077Z,971.43
2022-09-29T07:48:56.071Z,971.40
2022-09-29T07:49:56.101Z,971.40
2022-09-29T07:50:56.038Z,971.40
2022-09-29T07:51:56.047Z,971.36
2022-09-29T07:52:56.013Z,971.40
2022-09-29T07:53:55.992Z,971.35
2022-09-29T07:54:55.984Z,971.36
2022-09-29T07:55:55.992Z,971.33
2022-09-29T07:56:56.000Z,971.30
2022-09-29T07:57:55.967Z,971.29
2022-09-29T07:58:55.931Z,971.31
2022-09-29T07:59:55.956Z,971.29
2022-09-29T08:00:55.967Z,971.26
2022-09-29T08:01:55.984Z,971.29
2022-09-29T08:02:55.888Z,971.31
2022-09-29T08:03:55.916Z,971.23
2022-09-29T08:05:00.665Z,971.25
2022-09-29T08:05:55.899Z,971.26
2022-09-29T08:06:55.865Z,971.20
2022-09-29T08:07:55.842Z,971.26
2022-09-29T08:09:04.322Z,971.25
2022-09-29T08:09:57.885Z,971.27
2022-09-29T08:10:55.806Z,971.28
2022-09-29T08:12:05.477Z,971.30
2022-09-29T08:12:55.835Z,971.27
2022-09-29T08:13:55.800Z,971.29
2022-09-29T08:14:55.779Z,971.31
2022-09-29T08:15:55.763Z,971.29
2022-09-29T08:16:55.805Z,971.27
2022-09-29T08:17:55.762Z,971.31
2022-09-29T08:18:55.716Z,971.31
2022-09-29T08:19:55.735Z,971.29
2022-09-29T08:20:57.709Z,971.28
2022-09-29T08:21:55.713Z,971.28
2022-09-29T08:22:55.675Z,971.24
2022-09-29T08:23:55.697Z,971.28
2022-09-29T08:24:55.709Z,971.28
2022-09-29T08:26:01.461Z,971.28
2022-09-29T08:26:55.650Z,971.28
2022-09-29T08:27:56.078Z,971.27
2022-09-29T08:29:05.581Z,971.23
2022-09-29T08:29:55.612Z,971.21
2022-09-29T08:30:58.896Z,971.22
2022-09-29T08:31:55.631Z,971.23
2022-09-29T08:32:55.571Z,971.25
2022-09-29T08:33:55.552Z,971.23
2022-09-29T08:34:55.532Z,971.25
2022-09-29T08:35:55.547Z,971.27
2022-09-29T08:36:55.570Z,971.25
2022-09-29T08:37:55.534Z,971.26
2022-09-29T08:38:55.486Z,971.27
2022-09-29T08:39:55.488Z,971.27
2022-09-29T08:40:55.512Z,971.27
2022-09-29T08:41:55.448Z,971.25
2022-09-29T08:42:55.489Z,971.31
2022-09-29T08:43:55.434Z,971.30
2022-09-29T08:45:01.209Z,971.29
2022-09-29T08:46:00.497Z,971.27
2022-09-29T08:47:06.576Z,971.30
2022-09-29T08:47:55.448Z,971.28
2022-09-29T08:48:58.663Z,971.26
2022-09-29T08:49:55.357Z,971.30
2022-09-29T08:50:55.356Z,971.29
2022-09-29T08:51:56.008Z,971.27
2022-09-29T08:52:55.371Z,971.26
2022-09-29T08:54:02.491Z,971.30
2022-09-29T08:54:55.329Z,971.28
2022-09-29T08:55:55.299Z,971.25
2022-09-29T08:56:55.302Z,971.25
2022-09-29T08:57:55.282Z,971.25
2022-09-29T08:58:55.260Z,971.26
2022-09-29T08:59:55.272Z,971.26
2022-09-29T09:00:55.308Z,971.27
2022-09-29T09:01:55.304Z,971.33
2022-09-29T09:02:56.968Z,971.29
2022-09-29T09:03:55.216Z,971.28
2022-09-29T09:04:55.226Z,971.27
2022-09-29T09:05:55.254Z,971.29
2022-09-29T09:06:55.189Z,971.26
2022-09-29T09:07:55.179Z,971.30
2022-09-29T09:08:55.155Z,971.25
2022-09-29T09:09:55.142Z,971.24
2022-09-29T09:10:55.118Z,971.24
2022-09-29T09:11:55.172Z,971.24
2022-09-29T09:12:55.120Z,971.24
2022-09-29T09:13:55.107Z,971.22
2022-09-29T09:14:55.086Z,971.21
2022-09-29T09:15:55.062Z,971.23
2022-09-29T09:16:55.283Z,971.21
2022-09-29T09:17:55.049Z,971.20
2022-09-29T09:18:55.096Z,971.21
2022-09-29T09:19:55.040Z,971.18
2022-09-29T09:20:55.065Z,971.21
2022-09-29T09:21:55.005Z,971.23
2022-09-29T09:22:55.005Z,971.20
2022-09-29T09:23:58.252Z,971.20
2022-09-29T09:24:54.996Z,971.17
2022-09-29T09:25:55.028Z,971.20
2022-09-29T09:26:55.002Z,971.19
2022-09-29T09:27:54.946Z,971.20
2022-09-29T09:28:54.938Z,971.21
2022-09-29T09:29:54.934Z,971.23
2022-09-29T09:30:54.977Z,971.20
2022-09-29T09:31:54.930Z,971.22
2022-09-29T09:32:54.886Z,971.17
2022-09-29T09:34:05.247Z,971.19
2022-09-29T09:34:59.447Z,971.20
2022-09-29T09:35:59.023Z,971.16
2022-09-29T09:37:05.132Z,971.15
2022-09-29T09:37:54.862Z,971.18
2022-09-29T09:38:54.824Z,971.17
2022-09-29T09:39:54.872Z,971.15
2022-09-29T09:40:54.795Z,971.16
2022-09-29T09:41:54.802Z,971.18
2022-09-29T09:42:54.795Z,971.16
2022-09-29T09:43:54.757Z,971.13
2022-09-29T09:44:54.748Z,971.15
2022-09-29T09:45:54.815Z,971.13
2022-09-29T09:46:54.732Z,971.13
2022-09-29T09:47:54.770Z,971.09
2022-09-29T09:48:54.705Z,971.11
2022-09-29T09:49:54.699Z,971.10
2022-09-29T09:50:54.702Z,971.11
2022-09-29T09:51:54.681Z,971.06
2022-09-29T09:52:54.678Z,971.10
2022-09-29T09:53:54.721Z,971.11
2022-09-29T09:54:54.632Z,971.06
2022-09-29T09:55:54.620Z,971.08
2022-09-29T09:56:54.645Z,971.06
2022-09-29T09:57:54.619Z,971.07
2022-09-29T09:58:54.618Z,971.05
2022-09-29T09:59:56.694Z,971.06
2022-09-29T10:00:54.646Z,971.10
2022-09-29T10:01:54.637Z,971.06
2022-09-29T10:02:54.555Z,971.08
2022-09-29T10:03:54.583Z,971.08
2022-09-29T10:04:54.536Z,971.07
2022-09-29T10:05:54.540Z,971.04
2022-09-29T10:06:54.528Z,971.05
2022-09-29T10:07:54.508Z,971.05
2022-09-29T10:08:54.484Z,971.05
2022-09-29T10:09:54.462Z,971.05
2022-09-29T10:10:59.444Z,971.07
2022-09-29T10:11:54.464Z,971.11
2022-09-29T10:12:59.050Z,971.08
2022-09-29T10:13:54.494Z,971.07
2022-09-29T10:14:54.420Z,971.09
2022-09-29T10:15:54.420Z,971.12
2022-09-29T10:16:54.437Z,971.10
2022-09-29T10:17:54.372Z,971.06
2022-09-29T10:18:54.387Z,971.03
2022-09-29T10:19:54.430Z,971.03
2022-09-29T10:20:54.364Z,971.04
2022-09-29T10:21:54.326Z,971.04
2022-09-29T10:22:54.312Z,971.04
2022-09-29T10:23:54.465Z,971.04
2022-09-29T10:24:54.305Z,971.04
2022-09-29T10:25:54.322Z,971.03
2022-09-29T10:26:54.354Z,971.02
2022-09-29T10:27:54.269Z,971.02
2022-09-29T10:28:54.263Z,971.02
2022-09-29T10:29:54.259Z,971.03
2022-09-29T10:30:54.305Z,971.01
2022-09-29T10:31:54.222Z,970.99
2022-09-29T10:32:54.816Z,971.01
2022-09-29T10:33:54.295Z,971.00
2022-09-29T10:34:54.183Z,970.98
2022-09-29T10:35:54.185Z,971.01
2022-09-29T10:36:54.158Z,971.01
2022-09-29T10:37:54.162Z,971.03
2022-09-29T10:38:54.177Z,971.01
2022-09-29T10:39:54.140Z,971.01
2022-09-29T10:40:54.122Z,971.02
2022-09-29T10:41:54.303Z,971.07
2022-09-29T10:42:54.161Z,970.94
2022-09-29T10:43:54.182Z,971.01
2022-09-29T10:44:54.074Z,970.98
2022-09-29T10:45:54.070Z,971.00
2022-09-29T10:46:54.072Z,970.96
2022-09-29T10:47:54.074Z,970.93
2022-09-29T10:48:54.078Z,970.96
2022-09-29T10:49:54.011Z,970.93
2022-09-29T10:50:54.093Z,970.94
2022-09-29T10:51:54.016Z,970.92
2022-09-29T10:52:53.979Z,970.92
2022-09-29T10:53:54.024Z,970.91
2022-09-29T10:54:53.976Z,970.90
2022-09-29T10:55:53.991Z,970.90
2022-09-29T10:56:53.936Z,970.94
2022-09-29T10:57:53.929Z,970.88
2022-09-29T10:59:00.457Z,970.91
2022-09-29T10:59:54.075Z,970.88
2022-09-29T11:00:54.032Z,970.88
2022-09-29T11:01:53.883Z,970.89
2022-09-29T11:02:53.901Z,970.87
2022-09-29T11:03:53.876Z,970.86
2022-09-29T11:04:53.867Z,970.84
2022-09-29T11:05:53.854Z,970.86
2022-09-29T11:06:53.894Z,970.84
2022-09-29T11:07:53.824Z,970.86
2022-09-29T11:08:53.847Z,970.83
2022-09-29T11:09:53.807Z,970.80
2022-09-29T11:10:53.785Z,970.80
2022-09-29T11:11:59.422Z,970.83
2022-09-29T11:12:53.794Z,970.77
2022-09-29T11:13:53.749Z,970.80
2022-09-29T11:14:54.657Z,970.79
2022-09-29T11:15:53.721Z,970.78
2022-09-29T11:16:53.762Z,970.85
2022-09-29T11:17:53.771Z,970.78
2022-09-29T11:18:53.775Z,970.78
2022-09-29T11:19:53.699Z,970.80
2022-09-29T11:20:55.567Z,970.74
2022-09-29T11:21:53.671Z,970.71
2022-09-29T11:22:53.653Z,970.73
2022-09-29T11:24:09.929Z,970.71
2022-09-29T11:24:53.665Z,970.65
2022-09-29T11:25:53.657Z,970.68
2022-09-29T11:26:59.860Z,970.72
2022-09-29T11:27:53.614Z,970.71
2022-09-29T11:28:53.614Z,970.66
2022-09-29T11:29:53.644Z,970.58
2022-09-29T11:30:53.612Z,970.62
2022-09-29T11:31:53.562Z,970.59
2022-09-29T11:32:53.553Z,970.59
2022-09-29T11:33:53.561Z,970.58
2022-09-29T11:34:53.519Z,970.55
2022-09-29T11:35:53.509Z,970.53
2022-09-29T11:36:53.528Z,970.49
2022-09-29T11:37:53.592Z,970.49
2022-09-29T11:38:53.488Z,970.51
2022-09-29T11:39:53.493Z,970.48
2022-09-29T11:40:53.451Z,970.50
2022-09-29T11:41:53.483Z,970.50
2022-09-29T11:42:53.435Z,970.49
2022-09-29T11:43:53.412Z,970.49
2022-09-29T11:44:53.432Z,970.51
2022-09-29T11:45:53.442Z,970.51
2022-09-29T11:46:53.401Z,970.48
2022-09-29T11:47:53.361Z,970.46
2022-09-29T11:48:53.361Z,970.47
2022-09-29T11:49:53.363Z,970.48
2022-09-29T11:50:53.352Z,970.46
2022-09-29T11:51:53.326Z,970.47
2022-09-29T11:52:53.315Z,970.45
2022-09-29T11:53:53.319Z,970.49
2022-09-29T11:54:53.322Z,970.47
2022-09-29T11:55:53.289Z,970.45
2022-09-29T11:56:53.260Z,970.49
2022-09-29T11:57:53.248Z,970.48
2022-09-29T11:58:53.266Z,970.47
2022-09-29T11:59:53.257Z,970.47
2022-09-29T12:00:53.220Z,970.47
2022-09-29T12:01:53.254Z,970.45
2022-09-29T12:02:53.319Z,970.44
2022-09-29T12:03:53.217Z,970.43
2022-09-29T12:04:53.234Z,970.42
2022-09-29T12:05:53.162Z,970.44
2022-09-29T12:06:53.213Z,970.45
2022-09-29T12:07:53.211Z,970.44
2022-09-29T12:08:53.154Z,970.45
2022-09-29T12:09:53.178Z,970.42
2022-09-29T12:10:53.102Z,970.42
2022-09-29T12:12:11.569Z,970.40
2022-09-29T12:12:53.123Z,970.44
2022-09-29T12:13:53.100Z,970.44
2022-09-29T12:14:53.059Z,970.46
2022-09-29T12:15:53.054Z,970.43
2022-09-29T12:16:53.129Z,970.39
2022-09-29T12:17:53.061Z,970.40
2022-09-29T12:18:53.050Z,970.37
2022-09-29T12:19:53.000Z,970.39
2022-09-29T12:20:53.031Z,970.39
2022-09-29T12:21:53.034Z,970.36
2022-09-29T12:22:52.978Z,970.38
2022-09-29T12:23:52.995Z,970.38
2022-09-29T12:24:52.993Z,970.40
2022-09-29T12:25:52.952Z,970.40
2022-09-29T12:26:52.957Z,970.40
2022-09-29T12:27:52.994Z,970.40